sensor_id;sensor_type;location;lat;lon;timestamp;pressure;altitude;pressure_sealevel;temperature;humidity
73748;BME280;62056;52.130;5.428;2022-10-28T00:00:12;102019.59;;;15.43;74.19
73748;BME280;62056;52.130;5.428;2022-10-28T00:02:39;102007.56;;;15.40;74.52
73748;BME280;62056;52.130;5.428;2022-10-28T00:05:06;102008.63;;;15.39;74.62
73748;BME280;62056;52.130;5.428;2022-10-28T00:07:33;102008.94;;;15.37;74.41
73748;BME280;62056;52.130;5.428;2022-10-28T00:10:00;102011.13;;;15.35;74.21
73748;BME280;62056;52.130;5.428;2022-10-28T00:12:26;102011.41;;;15.34;74.79
73748;BME280;62056;52.130;5.428;2022-10-28T00:14:53;102010.91;;;15.32;74.85
73748;BME280;62056;52.130;5.428;2022-10-28T00:17:19;102012.78;;;15.31;74.47
73748;BME280;62056;52.130;5.428;2022-10-28T00:19:46;102001.56;;;15.29;74.79
73748;BME280;62056;52.130;5.428;2022-10-28T00:22:14;102008.00;;;15.28;74.86
73748;BME280;62056;52.130;5.428;2022-10-28T00:24:41;101998.38;;;15.27;75.05
73748;BME280;62056;52.130;5.428;2022-10-28T00:27:07;101995.97;;;15.26;74.94
73748;BME280;62056;52.130;5.428;2022-10-28T00:29:33;101989.81;;;15.25;74.83
73748;BME280;62056;52.130;5.428;2022-10-28T00:32:03;101990.38;;;15.22;74.92
73748;BME280;62056;52.130;5.428;2022-10-28T00:34:30;101987.19;;;15.20;75.25
73748;BME280;62056;52.130;5.428;2022-10-28T00:36:56;101983.72;;;15.20;75.21
73748;BME280;62056;52.130;5.428;2022-10-28T00:39:24;101988.59;;;15.17;75.41
73748;BME280;62056;52.130;5.428;2022-10-28T00:41:54;101995.00;;;15.16;76.18
73748;BME280;62056;52.130;5.428;2022-10-28T00:44:42;101999.59;;;15.16;78.22
73748;BME280;62056;52.130;5.428;2022-10-28T00:50:05;101980.31;;;15.14;76.52
73748;BME280;62056;52.130;5.428;2022-10-28T00:52:35;101983.28;;;15.12;75.63
73748;BME280;62056;52.130;5.428;2022-10-28T00:55:02;101967.50;;;15.11;75.99
73748;BME280;62056;52.130;5.428;2022-10-28T00:57:33;101966.69;;;15.10;77.18
73748;BME280;62056;52.130;5.428;2022-10-28T01:00:04;101967.78;;;15.09;76.28
73748;BME280;62056;52.130;5.428;2022-10-28T01:02:43;101966.22;;;15.08;77.58
73748;BME280;62056;52.130;5.428;2022-10-28T01:05:12;101963.03;;;15.06;76.21
73748;BME280;62056;52.130;5.428;2022-10-28T01:07:40;101957.97;;;15.05;75.75
73748;BME280;62056;52.130;5.428;2022-10-28T01:10:07;101958.75;;;15.05;76.04
73748;BME280;62056;52.130;5.428;2022-10-28T01:12:47;101959.03;;;15.04;78.33
73748;BME280;62056;52.130;5.428;2022-10-28T01:15:29;101952.09;;;15.03;78.38
73748;BME280;62056;52.130;5.428;2022-10-28T01:23:28;101953.47;;;15.00;78.45
73748;BME280;62056;52.130;5.428;2022-10-28T01:35:23;101957.00;;;14.95;76.99
73748;BME280;62056;52.130;5.428;2022-10-28T01:38:12;101946.28;;;14.95;79.32
73748;BME280;62056;52.130;5.428;2022-10-28T01:48:25;101943.41;;;14.92;77.50
73748;BME280;62056;52.130;5.428;2022-10-28T01:51:06;101939.41;;;14.89;78.24
73748;BME280;62056;52.130;5.428;2022-10-28T01:53:38;101938.59;;;14.89;77.54
73748;BME280;62056;52.130;5.428;2022-10-28T01:56:10;101936.22;;;14.87;77.30
73748;BME280;62056;52.130;5.428;2022-10-28T01:58:39;101927.66;;;14.85;76.83
73748;BME280;62056;52.130;5.428;2022-10-28T02:01:08;101923.41;;;14.84;76.73
73748;BME280;62056;52.130;5.428;2022-10-28T02:03:35;101929.03;;;14.83;76.95
73748;BME280;62056;52.130;5.428;2022-10-28T02:06:09;101925.84;;;14.81;77.05
73748;BME280;62056;52.130;5.428;2022-10-28T02:14:32;101918.09;;;14.79;80.88
73748;BME280;62056;52.130;5.428;2022-10-28T02:17:18;101913.06;;;14.77;78.33
73748;BME280;62056;52.130;5.428;2022-10-28T02:22:57;101915.22;;;14.75;79.58
73748;BME280;62056;52.130;5.428;2022-10-28T02:25:37;101909.38;;;14.73;78.91
73748;BME280;62056;52.130;5.428;2022-10-28T02:28:08;101913.09;;;14.72;77.65
73748;BME280;62056;52.130;5.428;2022-10-28T02:30:48;101914.22;;;14.71;79.46
73748;BME280;62056;52.130;5.428;2022-10-28T02:33:21;101907.56;;;14.69;77.32
73748;BME280;62056;52.130;5.428;2022-10-28T02:35:53;101912.09;;;14.68;77.48
73748;BME280;62056;52.130;5.428;2022-10-28T02:38:26;101904.06;;;14.68;78.15
73748;BME280;62056;52.130;5.428;2022-10-28T02:40:58;101909.72;;;14.67;77.28
73748;BME280;62056;52.130;5.428;2022-10-28T02:43:28;101903.56;;;14.66;77.51
73748;BME280;62056;52.130;5.428;2022-10-28T02:45:58;101900.38;;;14.64;78.22
73748;BME280;62056;52.130;5.428;2022-10-28T02:48:44;101899.84;;;14.62;78.46
73748;BME280;62056;52.130;5.428;2022-10-28T02:51:18;101900.66;;;14.63;78.51
73748;BME280;62056;52.130;5.428;2022-10-28T02:53:58;101894.81;;;14.61;79.30
73748;BME280;62056;52.130;5.428;2022-10-28T02:56:29;101904.19;;;14.58;77.12
73748;BME280;62056;52.130;5.428;2022-10-28T02:58:57;101904.19;;;14.58;77.27
73748;BME280;62056;52.130;5.428;2022-10-28T03:01:23;101908.25;;;14.55;76.67
73748;BME280;62056;52.130;5.428;2022-10-28T03:03:50;101902.06;;;14.55;77.48
73748;BME280;62056;52.130;5.428;2022-10-28T03:06:17;101899.66;;;14.53;77.00
73748;BME280;62056;52.130;5.428;2022-10-28T03:08:44;101900.78;;;14.52;77.15
73748;BME280;62056;52.130;5.428;2022-10-28T03:11:11;101899.16;;;14.51;77.03
73748;BME280;62056;52.130;5.428;2022-10-28T03:13:38;101898.66;;;14.49;77.38
73748;BME280;62056;52.130;5.428;2022-10-28T03:16:04;101890.91;;;14.48;76.84
73748;BME280;62056;52.130;5.428;2022-10-28T03:18:31;101893.88;;;14.46;77.55
73748;BME280;62056;52.130;5.428;2022-10-28T03:20:57;101891.75;;;14.43;77.07
73748;BME280;62056;52.130;5.428;2022-10-28T03:23:24;101887.22;;;14.44;77.26
73748;BME280;62056;52.130;5.428;2022-10-28T03:25:51;101892.88;;;14.42;77.00
73748;BME280;62056;52.130;5.428;2022-10-28T03:28:17;101902.78;;;14.42;77.21
73748;BME280;62056;52.130;5.428;2022-10-28T03:30:44;101895.81;;;14.41;77.88
73748;BME280;62056;52.130;5.428;2022-10-28T03:33:11;101904.13;;;14.39;77.57
73748;BME280;62056;52.130;5.428;2022-10-28T03:35:37;101897.19;;;14.38;77.83
73748;BME280;62056;52.130;5.428;2022-10-28T03:38:05;101894.78;;;14.36;78.22
73748;BME280;62056;52.130;5.428;2022-10-28T03:40:32;101884.94;;;14.32;78.07
73748;BME280;62056;52.130;5.428;2022-10-28T03:42:59;101889.28;;;14.28;78.23
73748;BME280;62056;52.130;5.428;2022-10-28T03:45:26;101879.66;;;14.27;78.52
73748;BME280;62056;52.130;5.428;2022-10-28T03:47:58;101878.06;;;14.26;78.20
73748;BME280;62056;52.130;5.428;2022-10-28T03:50:24;101869.53;;;14.24;77.86
73748;BME280;62056;52.130;5.428;2022-10-28T03:52:51;101868.22;;;14.21;77.67
73748;BME280;62056;52.130;5.428;2022-10-28T03:55:18;101866.63;;;14.20;77.69
73748;BME280;62056;52.130;5.428;2022-10-28T03:57:44;101860.75;;;14.18;77.34
73748;BME280;62056;52.130;5.428;2022-10-28T04:00:14;101860.75;;;14.18;78.21
73748;BME280;62056;52.130;5.428;2022-10-28T04:02:41;101852.47;;;14.20;78.72
73748;BME280;62056;52.130;5.428;2022-10-28T04:05:08;101857.28;;;14.17;77.12
73748;BME280;62056;52.130;5.428;2022-10-28T04:07:34;101853.84;;;14.17;78.01
73748;BME280;62056;52.130;5.428;2022-10-28T04:10:01;101859.97;;;14.17;77.99
73748;BME280;62056;52.130;5.428;2022-10-28T04:12:27;101865.31;;;14.17;78.37
73748;BME280;62056;52.130;5.428;2022-10-28T04:14:54;101862.13;;;14.15;77.93
73748;BME280;62056;52.130;5.428;2022-10-28T04:17:21;101857.06;;;14.14;77.64
73748;BME280;62056;52.130;5.428;2022-10-28T04:19:48;101857.34;;;14.12;78.17
73748;BME280;62056;52.130;5.428;2022-10-28T04:22:14;101865.34;;;14.12;77.77
73748;BME280;62056;52.130;5.428;2022-10-28T04:24:41;101868.34;;;14.11;78.19
73748;BME280;62056;52.130;5.428;2022-10-28T04:27:08;101865.94;;;14.09;77.78
73748;BME280;62056;52.130;5.428;2022-10-28T04:29:34;101869.72;;;14.08;77.08
73748;BME280;62056;52.130;5.428;2022-10-28T04:32:01;101876.13;;;14.07;77.43
73748;BME280;62056;52.130;5.428;2022-10-28T04:34:28;101871.88;;;14.06;77.86
73748;BME280;62056;52.130;5.428;2022-10-28T04:36:54;101875.63;;;14.05;78.68
73748;BME280;62056;52.130;5.428;2022-10-28T04:39:21;101867.59;;;14.05;78.70
73748;BME280;62056;52.130;5.428;2022-10-28T04:41:48;101867.59;;;14.05;78.39
73748;BME280;62056;52.130;5.428;2022-10-28T04:44:15;101866.81;;;14.05;77.90
73748;BME280;62056;52.130;5.428;2022-10-28T04:46:43;101872.44;;;14.03;77.46
73748;BME280;62056;52.130;5.428;2022-10-28T04:49:09;101866.00;;;14.04;78.46
73748;BME280;62056;52.130;5.428;2022-10-28T04:51:36;101867.09;;;14.03;78.62
73748;BME280;62056;52.130;5.428;2022-10-28T04:54:03;101864.13;;;14.05;78.79
73748;BME280;62056;52.130;5.428;2022-10-28T04:56:29;101869.47;;;14.05;78.82
73748;BME280;62056;52.130;5.428;2022-10-28T04:58:58;101862.53;;;14.04;78.67
73748;BME280;62056;52.130;5.428;2022-10-28T05:25:41;101841.72;;;14.01;78.73
73748;BME280;62056;52.130;5.428;2022-10-28T05:28:09;101836.38;;;14.01;79.62
73748;BME280;62056;52.130;5.428;2022-10-28T05:30:35;101838.25;;;14.00;78.52
73748;BME280;62056;52.130;5.428;2022-10-28T05:33:03;101850.00;;;13.99;78.60
73748;BME280;62056;52.130;5.428;2022-10-28T05:35:30;101839.31;;;13.99;78.81
73748;BME280;62056;52.130;5.428;2022-10-28T05:37:57;101846.28;;;14.00;80.02
73748;BME280;62056;52.130;5.428;2022-10-28T05:40:23;101842.50;;;14.01;80.62
73748;BME280;62056;52.130;5.428;2022-10-28T05:42:53;101838.53;;;13.99;79.62
73748;BME280;62056;52.130;5.428;2022-10-28T05:45:20;101842.78;;;14.00;79.03
73748;BME280;62056;52.130;5.428;2022-10-28T05:47:47;101842.00;;;13.99;79.09
73748;BME280;62056;52.130;5.428;2022-10-28T05:50:16;101837.72;;;13.98;78.88
73748;BME280;62056;52.130;5.428;2022-10-28T05:52:49;101843.09;;;13.98;79.31
73748;BME280;62056;52.130;5.428;2022-10-28T05:55:17;101842.25;;;13.97;79.08
73748;BME280;62056;52.130;5.428;2022-10-28T05:57:48;101839.31;;;13.99;80.36
73748;BME280;62056;52.130;5.428;2022-10-28T06:00:17;101828.88;;;13.97;79.43
73748;BME280;62056;52.130;5.428;2022-10-28T06:02:44;101838.00;;;13.96;79.78
73748;BME280;62056;52.130;5.428;2022-10-28T06:05:11;101847.59;;;13.97;79.31
73748;BME280;62056;52.130;5.428;2022-10-28T06:07:39;101843.34;;;13.96;79.15
73748;BME280;62056;52.130;5.428;2022-10-28T06:10:08;101852.44;;;13.95;78.93
73748;BME280;62056;52.130;5.428;2022-10-28T06:12:36;101851.66;;;13.95;79.57
73748;BME280;62056;52.130;5.428;2022-10-28T06:15:03;101845.53;;;13.94;80.03
73748;BME280;62056;52.130;5.428;2022-10-28T06:17:30;101845.53;;;13.94;79.76
73748;BME280;62056;52.130;5.428;2022-10-28T06:19:56;101853.81;;;13.93;79.60
73748;BME280;62056;52.130;5.428;2022-10-28T06:22:23;101852.25;;;13.92;79.82
73748;BME280;62056;52.130;5.428;2022-10-28T06:24:49;101851.16;;;13.93;79.38
73748;BME280;62056;52.130;5.428;2022-10-28T06:27:16;101839.66;;;13.92;79.96
73748;BME280;62056;52.130;5.428;2022-10-28T06:29:43;101850.63;;;13.91;79.62
73748;BME280;62056;52.130;5.428;2022-10-28T06:32:10;101857.88;;;13.90;79.47
73748;BME280;62056;52.130;5.428;2022-10-28T06:34:36;101863.72;;;13.92;80.43
73748;BME280;62056;52.130;5.428;2022-10-28T06:37:05;101856.22;;;13.94;81.05
73748;BME280;62056;52.130;5.428;2022-10-28T06:39:32;101861.22;;;14.01;81.05
73748;BME280;62056;52.130;5.428;2022-10-28T06:42:03;101869.72;;;14.08;81.69
73748;BME280;62056;52.130;5.428;2022-10-28T06:44:30;101864.03;;;14.15;81.84
73748;BME280;62056;52.130;5.428;2022-10-28T06:46:56;101864.47;;;14.22;82.28
73748;BME280;62056;52.130;5.428;2022-10-28T06:49:23;101863.03;;;14.30;82.93
73748;BME280;62056;52.130;5.428;2022-10-28T06:51:49;101866.97;;;14.37;83.42
73748;BME280;62056;52.130;5.428;2022-10-28T06:54:16;101870.88;;;14.45;83.57
73748;BME280;62056;52.130;5.428;2022-10-28T06:56:46;101876.69;;;14.52;84.01
73748;BME280;62056;52.130;5.428;2022-10-28T06:59:13;101879.53;;;14.61;84.55
73748;BME280;62056;52.130;5.428;2022-10-28T07:01:39;101870.06;;;14.69;84.97
73748;BME280;62056;52.130;5.428;2022-10-28T07:04:10;101865.16;;;14.76;84.68
73748;BME280;62056;52.130;5.428;2022-10-28T07:06:37;101867.19;;;14.84;85.01
73748;BME280;62056;52.130;5.428;2022-10-28T07:09:05;101859.56;;;14.91;85.32
73748;BME280;62056;52.130;5.428;2022-10-28T07:11:33;101876.34;;;14.97;85.42
73748;BME280;62056;52.130;5.428;2022-10-28T07:18:50;101860.56;;;15.14;84.49
73748;BME280;62056;52.130;5.428;2022-10-28T07:21:17;101862.06;;;15.21;84.46
73748;BME280;62056;52.130;5.428;2022-10-28T07:23:46;101860.91;;;15.27;85.76
73748;BME280;62056;52.130;5.428;2022-10-28T07:26:13;101870.75;;;15.31;85.46
73748;BME280;62056;52.130;5.428;2022-10-28T07:28:40;101876.81;;;15.37;85.97
73748;BME280;62056;52.130;5.428;2022-10-28T07:31:08;101877.53;;;15.43;85.70
73748;BME280;62056;52.130;5.428;2022-10-28T07:33:37;101874.47;;;15.49;85.43
73748;BME280;62056;52.130;5.428;2022-10-28T07:36:04;101875.47;;;15.53;85.79
73748;BME280;62056;52.130;5.428;2022-10-28T07:38:32;101878.59;;;15.61;86.07
73748;BME280;62056;52.130;5.428;2022-10-28T07:41:06;101879.59;;;15.65;85.69
73748;BME280;62056;52.130;5.428;2022-10-28T07:43:38;101869.84;;;15.69;85.60
73748;BME280;62056;52.130;5.428;2022-10-28T07:46:06;101875.94;;;15.74;85.57
73748;BME280;62056;52.130;5.428;2022-10-28T07:48:35;101867.00;;;15.79;85.63
73748;BME280;62056;52.130;5.428;2022-10-28T07:51:04;101874.97;;;15.84;85.38
73748;BME280;62056;52.130;5.428;2022-10-28T07:53:31;101880.72;;;15.91;84.80
73748;BME280;62056;52.130;5.428;2022-10-28T07:56:02;101888.41;;;15.98;84.63
73748;BME280;62056;52.130;5.428;2022-10-28T07:58:30;101891.75;;;16.04;84.40
73748;BME280;62056;52.130;5.428;2022-10-28T08:01:01;101895.16;;;16.09;84.08
73748;BME280;62056;52.130;5.428;2022-10-28T08:03:28;101901.72;;;16.17;84.48
73748;BME280;62056;52.130;5.428;2022-10-28T08:06:06;101898.34;;;16.25;84.33
73748;BME280;62056;52.130;5.428;2022-10-28T08:08:34;101897.66;;;16.33;84.40
73748;BME280;62056;52.130;5.428;2022-10-28T08:11:22;101897.81;;;16.37;81.72
73748;BME280;62056;52.130;5.428;2022-10-28T08:13:50;101886.38;;;16.45;83.94
73748;BME280;62056;52.130;5.428;2022-10-28T08:16:17;101892.16;;;16.52;84.08
73748;BME280;62056;52.130;5.428;2022-10-28T08:18:44;101889.56;;;16.61;83.61
73748;BME280;62056;52.130;5.428;2022-10-28T08:21:12;101892.59;;;16.68;82.94
73748;BME280;62056;52.130;5.428;2022-10-28T08:23:40;101892.03;;;16.71;83.15
73748;BME280;62056;52.130;5.428;2022-10-28T08:26:07;101889.22;;;16.76;82.89
73748;BME280;62056;52.130;5.428;2022-10-28T08:28:34;101891.84;;;16.82;82.25
73748;BME280;62056;52.130;5.428;2022-10-28T08:31:01;101895.38;;;16.91;82.77
73748;BME280;62056;52.130;5.428;2022-10-28T08:36:56;101896.31;;;17.09;82.05
73748;BME280;62056;52.130;5.428;2022-10-28T08:39:23;101894.19;;;17.19;82.16
73748;BME280;62056;52.130;5.428;2022-10-28T08:42:04;101892.97;;;17.26;81.29
73748;BME280;62056;52.130;5.428;2022-10-28T08:48:27;101895.94;;;17.47;78.21
73748;BME280;62056;52.130;5.428;2022-10-28T08:51:08;101898.09;;;17.58;80.86
73748;BME280;62056;52.130;5.428;2022-10-28T08:53:51;101896.03;;;17.64;80.29
73748;BME280;62056;52.130;5.428;2022-10-28T08:59:08;101876.78;;;17.71;77.65
73748;BME280;62056;52.130;5.428;2022-10-28T09:01:46;101877.72;;;17.75;76.91
73748;BME280;62056;52.130;5.428;2022-10-28T09:04:37;101881.47;;;17.88;79.14
73748;BME280;62056;52.130;5.428;2022-10-28T09:07:24;101891.50;;;17.96;77.53
73748;BME280;62056;52.130;5.428;2022-10-28T09:09:52;101879.59;;;17.97;78.69
73748;BME280;62056;52.130;5.428;2022-10-28T09:15:28;101888.66;;;18.10;78.63
73748;BME280;62056;52.130;5.428;2022-10-28T09:20:55;101894.13;;;18.27;78.24
73748;BME280;62056;52.130;5.428;2022-10-28T09:23:29;101885.91;;;18.32;78.15
73748;BME280;62056;52.130;5.428;2022-10-28T09:29:36;101881.19;;;18.47;76.71
73748;BME280;62056;52.130;5.428;2022-10-28T09:32:37;101882.91;;;18.51;75.35
73748;BME280;62056;52.130;5.428;2022-10-28T09:35:14;101878.19;;;18.57;76.57
73748;BME280;62056;52.130;5.428;2022-10-28T09:37:51;101882.97;;;18.69;76.36
73748;BME280;62056;52.130;5.428;2022-10-28T09:40:26;101888.19;;;18.74;76.67
73748;BME280;62056;52.130;5.428;2022-10-28T09:43:05;101892.03;;;18.82;76.25
73748;BME280;62056;52.130;5.428;2022-10-28T09:45:35;101889.81;;;18.84;76.00
73748;BME280;62056;52.130;5.428;2022-10-28T09:48:18;101886.16;;;18.88;75.16
73748;BME280;62056;52.130;5.428;2022-10-28T09:50:48;101883.28;;;18.85;73.88
73748;BME280;62056;52.130;5.428;2022-10-28T09:56:17;101885.97;;;18.93;74.92
73748;BME280;62056;52.130;5.428;2022-10-28T09:58:45;101878.25;;;18.92;74.25
73748;BME280;62056;52.130;5.428;2022-10-28T10:01:18;101888.53;;;18.98;73.31
73748;BME280;62056;52.130;5.428;2022-10-28T10:03:50;101887.09;;;19.01;74.51
73748;BME280;62056;52.130;5.428;2022-10-28T10:06:24;101887.09;;;19.01;74.21
73748;BME280;62056;52.130;5.428;2022-10-28T10:08:54;101893.44;;;19.05;74.19
73748;BME280;62056;52.130;5.428;2022-10-28T10:13:57;101888.50;;;19.16;74.05
73748;BME280;62056;52.130;5.428;2022-10-28T10:19:02;101884.22;;;19.24;74.13
73748;BME280;62056;52.130;5.428;2022-10-28T10:21:47;101883.56;;;19.27;74.08
73748;BME280;62056;52.130;5.428;2022-10-28T10:24:27;101880.25;;;19.30;72.14
73748;BME280;62056;52.130;5.428;2022-10-28T10:29:58;101857.38;;;19.45;73.45
73748;BME280;62056;52.130;5.428;2022-10-28T10:32:31;101868.44;;;19.52;73.39
73748;BME280;62056;52.130;5.428;2022-10-28T10:35:05;101860.34;;;19.60;72.48
73748;BME280;62056;52.130;5.428;2022-10-28T10:37:40;101859.22;;;19.61;73.16
73748;BME280;62056;52.130;5.428;2022-10-28T10:42:47;101866.22;;;19.71;72.39
73748;BME280;62056;52.130;5.428;2022-10-28T10:45:34;101860.31;;;19.78;72.93
73748;BME280;62056;52.130;5.428;2022-10-28T10:48:08;101856.00;;;19.86;72.79
73748;BME280;62056;52.130;5.428;2022-10-28T10:50:37;101852.63;;;19.89;72.26
73748;BME280;62056;52.130;5.428;2022-10-28T10:53:17;101849.78;;;19.94;70.92
73748;BME280;62056;52.130;5.428;2022-10-28T10:55:49;101847.19;;;19.97;72.40
73748;BME280;62056;52.130;5.428;2022-10-28T10:58:22;101864.47;;;20.05;71.86
73748;BME280;62056;52.130;5.428;2022-10-28T11:00:51;101860.94;;;20.13;71.86
73748;BME280;62056;52.130;5.428;2022-10-28T11:06:20;101874.06;;;20.24;71.44
73748;BME280;62056;52.130;5.428;2022-10-28T11:08:57;101859.56;;;20.28;71.40
73748;BME280;62056;52.130;5.428;2022-10-28T11:11:33;101853.38;;;20.28;71.47
73748;BME280;62056;52.130;5.428;2022-10-28T11:16:51;101853.47;;;20.40;71.04
73748;BME280;62056;52.130;5.428;2022-10-28T11:24:58;101843.06;;;20.51;70.03
73748;BME280;62056;52.130;5.428;2022-10-28T11:30:04;101856.97;;;20.61;70.44
73748;BME280;62056;52.130;5.428;2022-10-28T11:33:07;101862.72;;;20.60;70.42
73748;BME280;62056;52.130;5.428;2022-10-28T11:36:02;101846.03;;;20.58;70.08
73748;BME280;62056;52.130;5.428;2022-10-28T11:44:23;101856.72;;;20.75;70.26
73748;BME280;62056;52.130;5.428;2022-10-28T11:58:59;101861.66;;;20.94;68.23
73748;BME280;62056;52.130;5.428;2022-10-28T12:01:47;101867.28;;;21.01;69.50
73748;BME280;62056;52.130;5.428;2022-10-28T12:04:41;101879.50;;;21.08;69.40
73748;BME280;62056;52.130;5.428;2022-10-28T12:07:46;101883.09;;;21.12;68.29
73748;BME280;62056;52.130;5.428;2022-10-28T12:11:10;101872.56;;;21.19;68.88
73748;BME280;62056;52.130;5.428;2022-10-28T12:14:09;101863.31;;;21.20;68.60
73748;BME280;62056;52.130;5.428;2022-10-28T12:16:59;101876.63;;;21.25;68.32
73748;BME280;62056;52.130;5.428;2022-10-28T12:19:45;101872.47;;;21.28;67.59
73748;BME280;62056;52.130;5.428;2022-10-28T12:22:44;101878.44;;;21.33;67.20
73748;BME280;62056;52.130;5.428;2022-10-28T12:25:18;101863.13;;;21.37;66.71
73748;BME280;62056;52.130;5.428;2022-10-28T12:27:52;101863.56;;;21.39;67.34
73748;BME280;62056;52.130;5.428;2022-10-28T12:30:26;101865.16;;;21.40;66.39
73748;BME280;62056;52.130;5.428;2022-10-28T12:33:06;101872.97;;;21.42;66.36
73748;BME280;62056;52.130;5.428;2022-10-28T12:35:40;101882.47;;;21.48;66.53
73748;BME280;62056;52.130;5.428;2022-10-28T12:38:14;101890.22;;;21.50;66.29
73748;BME280;62056;52.130;5.428;2022-10-28T12:40:53;101884.28;;;21.56;65.84
73748;BME280;62056;52.130;5.428;2022-10-28T12:43:26;101871.53;;;21.57;65.33
73748;BME280;62056;52.130;5.428;2022-10-28T12:45:55;101875.03;;;21.57;64.79
73748;BME280;62056;52.130;5.428;2022-10-28T12:48:31;101876.03;;;21.53;64.64
73748;BME280;62056;52.130;5.428;2022-10-28T12:51:16;101878.63;;;21.49;63.88
73748;BME280;62056;52.130;5.428;2022-10-28T12:53:57;101878.16;;;21.47;64.19
73748;BME280;62056;52.130;5.428;2022-10-28T12:56:35;101881.66;;;21.48;64.12
73748;BME280;62056;52.130;5.428;2022-10-28T12:59:13;101891.81;;;21.51;63.97
73748;BME280;62056;52.130;5.428;2022-10-28T13:01:44;101903.19;;;21.44;64.34
73748;BME280;62056;52.130;5.428;2022-10-28T13:04:12;101908.59;;;21.44;64.20
73748;BME280;62056;52.130;5.428;2022-10-28T13:07:06;101902.97;;;21.49;64.29
73748;BME280;62056;52.130;5.428;2022-10-28T13:12:55;101929.13;;;21.45;62.93
73748;BME280;62056;52.130;5.428;2022-10-28T13:21:36;101925.31;;;21.46;64.36
73748;BME280;62056;52.130;5.428;2022-10-28T13:24:46;101931.38;;;21.43;64.02
73748;BME280;62056;52.130;5.428;2022-10-28T13:27:13;101936.00;;;21.42;64.31
73748;BME280;62056;52.130;5.428;2022-10-28T13:29:42;101932.16;;;21.43;64.37
73748;BME280;62056;52.130;5.428;2022-10-28T13:32:31;101926.09;;;21.47;64.35
73748;BME280;62056;52.130;5.428;2022-10-28T13:35:13;101941.09;;;21.44;64.25
73748;BME280;62056;52.130;5.428;2022-10-28T13:37:45;101926.25;;;21.41;64.49
73748;BME280;62056;52.130;5.428;2022-10-28T13:40:22;101949.53;;;21.42;64.59
73748;BME280;62056;52.130;5.428;2022-10-28T13:43:17;101944.56;;;21.45;64.56
73748;BME280;62056;52.130;5.428;2022-10-28T13:45:54;101937.75;;;21.38;64.44
73748;BME280;62056;52.130;5.428;2022-10-28T13:48:38;101938.53;;;21.39;64.09
73748;BME280;62056;52.130;5.428;2022-10-28T13:51:42;101942.66;;;21.45;64.29
73748;BME280;62056;52.130;5.428;2022-10-28T13:54:24;101943.78;;;21.44;64.59
73748;BME280;62056;52.130;5.428;2022-10-28T13:56:51;101943.31;;;21.42;64.71
73748;BME280;62056;52.130;5.428;2022-10-28T13:59:26;101941.25;;;21.39;64.91
73748;BME280;62056;52.130;5.428;2022-10-28T14:02:13;101946.31;;;21.40;64.74
73748;BME280;62056;52.130;5.428;2022-10-28T14:05:03;101948.13;;;21.36;64.86
73748;BME280;62056;52.130;5.428;2022-10-28T14:07:33;101960.03;;;21.35;64.76
73748;BME280;62056;52.130;5.428;2022-10-28T14:10:20;101975.50;;;21.35;64.59
73748;BME280;62056;52.130;5.428;2022-10-28T14:12:54;101976.88;;;21.41;64.15
73748;BME280;62056;52.130;5.428;2022-10-28T14:15:30;101981.59;;;21.32;64.50
73748;BME280;62056;52.130;5.428;2022-10-28T14:18:01;101981.22;;;21.33;64.67
73748;BME280;62056;52.130;5.428;2022-10-28T14:31:19;101975.56;;;21.26;64.76
73748;BME280;62056;52.130;5.428;2022-10-28T14:39:39;101969.97;;;21.31;64.70
73748;BME280;62056;52.130;5.428;2022-10-28T14:42:47;101967.69;;;21.33;64.46
73748;BME280;62056;52.130;5.428;2022-10-28T14:45:28;101973.66;;;21.27;64.87
73748;BME280;62056;52.130;5.428;2022-10-28T14:48:15;101980.53;;;21.24;65.02
73748;BME280;62056;52.130;5.428;2022-10-28T14:50:59;101987.41;;;21.21;64.88
73748;BME280;62056;52.130;5.428;2022-10-28T14:53:33;102000.91;;;21.21;65.01
73748;BME280;62056;52.130;5.428;2022-10-28T14:58:44;102008.88;;;21.18;65.33
73748;BME280;62056;52.130;5.428;2022-10-28T15:01:20;102006.50;;;21.16;65.29
73748;BME280;62056;52.130;5.428;2022-10-28T15:03:55;102003.03;;;21.16;65.41
73748;BME280;62056;52.130;5.428;2022-10-28T15:06:24;101997.00;;;21.10;65.57
73748;BME280;62056;52.130;5.428;2022-10-28T15:08:52;102004.00;;;21.11;65.44
73748;BME280;62056;52.130;5.428;2022-10-28T15:11:20;102002.78;;;21.09;65.58
73748;BME280;62056;52.130;5.428;2022-10-28T15:13:51;102004.66;;;21.08;65.63
73748;BME280;62056;52.130;5.428;2022-10-28T15:16:21;102005.34;;;21.05;65.64
73748;BME280;62056;52.130;5.428;2022-10-28T15:18:52;102001.84;;;21.05;65.87
73748;BME280;62056;52.130;5.428;2022-10-28T15:21:20;102006.44;;;21.04;65.83
73748;BME280;62056;52.130;5.428;2022-10-28T15:23:58;102010.28;;;21.03;66.01
73748;BME280;62056;52.130;5.428;2022-10-28T15:26:28;102019.84;;;21.00;66.02
73748;BME280;62056;52.130;5.428;2022-10-28T15:28:55;102019.84;;;21.00;66.33
73748;BME280;62056;52.130;5.428;2022-10-28T15:31:22;102029.72;;;20.96;66.41
73748;BME280;62056;52.130;5.428;2022-10-28T15:33:49;102032.44;;;20.96;66.45
73748;BME280;62056;52.130;5.428;2022-10-28T15:36:22;102039.63;;;20.92;66.69
73748;BME280;62056;52.130;5.428;2022-10-28T15:39:13;102040.25;;;20.89;66.74
73748;BME280;62056;52.130;5.428;2022-10-28T15:41:45;102040.25;;;20.89;66.71
73748;BME280;62056;52.130;5.428;2022-10-28T15:44:44;102038.53;;;20.85;66.81
73748;BME280;62056;52.130;5.428;2022-10-28T15:47:26;102043.00;;;20.80;66.92
73748;BME280;62056;52.130;5.428;2022-10-28T15:52:49;102037.81;;;20.75;67.31
73748;BME280;62056;52.130;5.428;2022-10-28T15:55:24;102036.22;;;20.74;67.15
73748;BME280;62056;52.130;5.428;2022-10-28T15:58:29;102045.09;;;20.75;67.12